createdAt,value
2023-04-09T00:00:38.656Z,23.30
2023-04-09T00:06:36.956Z,21.57
2023-04-09T00:09:04.905Z,21.97
2023-04-09T00:11:36.351Z,23.30
2023-04-09T00:14:10.868Z,22.13
2023-04-09T00:16:41.472Z,25.50
2023-04-09T00:19:20.129Z,23.40
2023-04-09T00:21:48.339Z,24.37
2023-04-09T00:24:18.333Z,24.17
2023-04-09T00:26:46.382Z,24.43
2023-04-09T00:29:23.837Z,26.10
2023-04-09T00:31:52.258Z,26.60
2023-04-09T00:34:22.323Z,29.23
2023-04-09T00:40:21.385Z,26.63
2023-04-09T00:42:49.361Z,27.47
2023-04-09T00:45:21.533Z,26.27
2023-04-09T00:47:53.643Z,26.97
2023-04-09T00:50:23.845Z,28.33
2023-04-09T00:52:58.378Z,27.27
2023-04-09T00:55:26.757Z,29.20
2023-04-09T00:57:54.657Z,28.30
2023-04-09T01:00:24.057Z,27.93
2023-04-09T01:02:54.141Z,30.07
2023-04-09T01:05:25.437Z,26.03
2023-04-09T01:08:02.723Z,27.87
2023-04-09T01:10:40.574Z,29.87
2023-04-09T01:13:12.829Z,31.30
2023-04-09T01:15:48.292Z,28.90
2023-04-09T01:18:23.484Z,30.57
2023-04-09T01:20:59.058Z,26.07
2023-04-09T01:23:38.439Z,28.20
2023-04-09T01:26:12.047Z,32.33
2023-04-09T01:28:56.999Z,28.47
2023-04-09T01:31:38.341Z,30.93
2023-04-09T01:34:33.584Z,29.90
2023-04-09T01:37:04.605Z,27.70
2023-04-09T01:46:18.678Z,29.27
2023-04-09T01:52:11.653Z,30.57
2023-04-09T01:54:39.610Z,28.77
2023-04-09T02:00:52.728Z,29.40
2023-04-09T02:03:36.728Z,32.67
2023-04-09T02:06:10.525Z,29.60
2023-04-09T02:09:00.624Z,30.73
2023-04-09T02:15:26.224Z,31.73
2023-04-09T02:17:57.397Z,29.60
2023-04-09T02:20:31.913Z,30.87
2023-04-09T02:23:19.428Z,27.93
2023-04-09T02:26:04.339Z,31.27
2023-04-09T02:29:17.698Z,30.10
2023-04-09T02:37:31.787Z,29.53
2023-04-09T02:40:58.483Z,28.83
2023-04-09T02:43:30.620Z,29.23
2023-04-09T02:46:26.121Z,32.40
2023-04-09T02:52:18.848Z,31.00
2023-04-09T02:57:55.670Z,30.27
2023-04-09T03:03:48.993Z,29.87
2023-04-09T03:06:22.399Z,31.67
2023-04-09T03:09:03.442Z,31.63
2023-04-09T03:11:37.013Z,31.10
2023-04-09T03:14:12.729Z,34.23
2023-04-09T03:17:12.237Z,30.20
2023-04-09T03:19:43.724Z,33.37
2023-04-09T03:22:11.789Z,30.50
2023-04-09T03:27:23.062Z,31.87
2023-04-09T03:29:57.867Z,33.53
2023-04-09T03:35:26.396Z,30.60
2023-04-09T03:37:54.750Z,29.77
2023-04-09T03:40:25.559Z,30.77
2023-04-09T03:42:53.549Z,30.33
2023-04-09T03:46:04.232Z,30.57
2023-04-09T03:48:34.035Z,29.57
2023-04-09T03:51:23.849Z,30.27
2023-04-09T03:54:04.714Z,32.57
2023-04-09T03:56:59.147Z,28.17
2023-04-09T04:02:44.730Z,29.80
2023-04-09T04:09:53.834Z,31.20
2023-04-09T04:12:21.803Z,27.70
2023-04-09T04:14:59.355Z,29.57
2023-04-09T04:17:48.207Z,29.83
2023-04-09T04:20:38.190Z,29.40
2023-04-09T04:23:42.522Z,26.67
2023-04-09T04:26:13.117Z,29.87
2023-04-09T04:28:44.285Z,27.93
2023-04-09T04:31:13.687Z,28.97
2023-04-09T04:33:42.531Z,30.40
2023-04-09T04:39:43.407Z,25.33
2023-04-09T04:42:13.807Z,27.37
2023-04-09T04:44:51.233Z,28.23
2023-04-09T04:47:19.454Z,27.17
2023-04-09T04:49:56.830Z,27.37
2023-04-09T04:52:44.093Z,28.10
2023-04-09T04:55:31.780Z,28.70
2023-04-09T04:58:05.621Z,27.80
2023-04-09T05:00:37.644Z,27.87
2023-04-09T05:03:05.572Z,28.70
2023-04-09T05:05:41.771Z,31.40
2023-04-09T05:08:11.616Z,30.53
2023-04-09T05:10:44.965Z,26.83
2023-04-09T05:13:18.699Z,24.33
2023-04-09T05:16:12.046Z,28.30
2023-04-09T05:18:44.565Z,26.40
2023-04-09T05:21:14.558Z,28.10
2023-04-09T05:23:48.360Z,26.57
2023-04-09T05:26:26.752Z,26.23
2023-04-09T05:29:07.633Z,25.03
2023-04-09T05:31:36.420Z,26.27
2023-04-09T05:34:04.380Z,27.10
2023-04-09T05:36:32.776Z,26.20
2023-04-09T05:39:03.033Z,26.57
2023-04-09T05:41:32.741Z,25.83
2023-04-09T05:47:36.405Z,26.93
2023-04-09T05:56:17.425Z,27.73
2023-04-09T06:01:32.951Z,25.30
2023-04-09T06:04:29.005Z,24.90
2023-04-09T06:07:20.342Z,23.37
2023-04-09T06:10:04.577Z,23.67
2023-04-09T06:13:01.039Z,26.33
2023-04-09T06:15:47.074Z,25.17
2023-04-09T06:18:36.779Z,23.13
2023-04-09T06:21:42.398Z,24.43
2023-04-09T06:30:41.489Z,19.77
2023-04-09T06:43:44.700Z,22.23
2023-04-09T06:46:34.642Z,21.37
2023-04-09T06:49:11.901Z,22.80
2023-04-09T06:51:40.077Z,22.50
2023-04-09T06:54:11.794Z,20.53
2023-04-09T06:56:39.723Z,20.90
2023-04-09T06:59:07.609Z,21.23
2023-04-09T07:01:37.707Z,20.83
2023-04-09T07:04:06.002Z,21.77
2023-04-09T07:06:36.398Z,23.77
2023-04-09T07:09:19.388Z,23.17
2023-04-09T07:11:52.244Z,23.33
2023-04-09T07:14:20.130Z,20.93
2023-04-09T07:16:48.318Z,22.50
2023-04-09T07:19:16.307Z,23.73
2023-04-09T07:21:45.404Z,20.43
2023-04-09T07:24:15.919Z,22.17
2023-04-09T07:26:44.101Z,21.10
2023-04-09T07:29:13.451Z,21.57
2023-04-09T07:31:44.617Z,19.83
2023-04-09T07:34:14.816Z,22.97
2023-04-09T07:36:43.661Z,22.63
2023-04-09T07:39:11.618Z,23.33
2023-04-09T07:42:02.626Z,21.63
2023-04-09T07:44:34.970Z,24.37
2023-04-09T07:47:09.999Z,25.40
2023-04-09T07:49:38.959Z,22.20
2023-04-09T07:52:09.450Z,25.37
2023-04-09T07:54:39.986Z,25.27
2023-04-09T07:57:31.512Z,22.83
2023-04-09T08:00:24.645Z,26.07
2023-04-09T08:02:53.162Z,22.47
2023-04-09T08:05:24.700Z,23.40
2023-04-09T08:08:00.799Z,24.20
2023-04-09T08:10:29.340Z,21.97
2023-04-09T08:12:57.298Z,23.37
2023-04-09T08:15:30.253Z,27.50
2023-04-09T08:18:00.744Z,24.50
2023-04-09T08:20:29.339Z,24.03
2023-04-09T08:22:57.654Z,24.53
2023-04-09T08:25:25.690Z,23.80
2023-04-09T08:27:56.020Z,23.57
2023-04-09T08:30:28.584Z,25.63
2023-04-09T08:35:38.164Z,23.80
2023-04-09T08:38:06.016Z,24.43
2023-04-09T08:40:36.791Z,23.83
2023-04-09T08:43:07.283Z,24.07
2023-04-09T08:45:35.341Z,24.70
2023-04-09T08:48:04.554Z,25.27
2023-04-09T08:50:34.681Z,24.57
2023-04-09T08:53:06.933Z,25.97
2023-04-09T08:55:35.561Z,23.10
2023-04-09T08:58:07.362Z,24.17
2023-04-09T09:00:35.802Z,23.60
2023-04-09T09:03:05.908Z,24.13
2023-04-09T09:05:39.996Z,22.90
2023-04-09T09:08:09.725Z,24.10
2023-04-09T09:10:39.671Z,21.50
2023-04-09T09:13:23.382Z,21.70
2023-04-09T09:15:56.930Z,22.13
2023-04-09T09:18:42.493Z,24.40
2023-04-09T09:21:19.561Z,23.77
2023-04-09T09:23:52.960Z,22.23
2023-04-09T09:26:28.893Z,24.60
2023-04-09T09:28:58.854Z,22.27
2023-04-09T09:31:27.568Z,25.17
2023-04-09T09:34:01.678Z,23.03
2023-04-09T09:36:39.682Z,24.57
2023-04-09T09:39:15.953Z,24.90
2023-04-09T09:41:49.965Z,24.27
2023-04-09T09:44:37.483Z,35.97
2023-04-09T09:47:07.484Z,24.80
2023-04-09T09:49:37.749Z,22.37
2023-04-09T09:52:17.185Z,27.23
2023-04-09T09:54:52.230Z,25.97
2023-04-09T09:57:26.578Z,22.07
2023-04-09T10:00:02.087Z,22.53
2023-04-09T10:02:38.384Z,25.80
2023-04-09T10:05:26.092Z,22.97
2023-04-09T10:12:14.923Z,24.80
2023-04-09T10:15:46.686Z,22.20
2023-04-09T10:18:15.678Z,22.73
2023-04-09T10:20:54.945Z,23.23
2023-04-09T10:26:36.832Z,21.70
2023-04-09T10:29:35.941Z,23.57
2023-04-09T10:32:11.885Z,22.53
2023-04-09T10:34:45.229Z,21.90
2023-04-09T10:37:18.931Z,23.23
2023-04-09T10:39:52.110Z,24.03
2023-04-09T10:42:25.925Z,21.03
2023-04-09T10:45:10.153Z,23.83
2023-04-09T10:47:39.395Z,20.37
2023-04-09T10:50:46.315Z,19.40
2023-04-09T10:53:26.010Z,19.33
2023-04-09T10:56:02.089Z,22.30
2023-04-09T10:58:32.372Z,19.33
2023-04-09T11:01:21.009Z,17.17
2023-04-09T11:04:16.662Z,18.70
2023-04-09T11:06:51.790Z,18.80
2023-04-09T11:09:23.005Z,17.47
2023-04-09T11:11:54.759Z,17.57
2023-04-09T11:14:38.572Z,18.33
2023-04-09T11:20:07.963Z,16.03
2023-04-09T11:22:40.677Z,16.63
2023-04-09T11:25:11.188Z,16.83
2023-04-09T11:27:50.556Z,16.30
2023-04-09T11:30:21.851Z,14.23
2023-04-09T11:33:28.863Z,14.60
2023-04-09T11:36:20.594Z,13.70
2023-04-09T11:42:52.303Z,12.83
2023-04-09T11:45:21.635Z,13.40
2023-04-09T11:48:27.344Z,12.00
2023-04-09T11:50:55.363Z,12.77
2023-04-09T11:53:41.097Z,13.37
2023-04-09T11:59:43.853Z,14.83
2023-04-09T12:16:43.816Z,11.27
2023-04-09T12:20:15.490Z,10.67
2023-04-09T12:33:24.175Z,11.13
2023-04-09T12:35:52.253Z,10.33
2023-04-09T12:38:20.525Z,11.30
2023-04-09T12:40:52.831Z,11.70
2023-04-09T12:43:29.132Z,10.23
2023-04-09T12:45:58.476Z,13.13
2023-04-09T12:48:27.804Z,11.63
2023-04-09T12:50:57.911Z,10.27
2023-04-09T12:53:25.912Z,12.30
2023-04-09T12:56:21.004Z,9.27
2023-04-09T12:58:48.967Z,11.00
2023-04-09T13:01:17.280Z,11.60
2023-04-09T13:04:05.776Z,10.87
2023-04-09T13:06:35.790Z,10.10
2023-04-09T13:09:22.660Z,9.50
2023-04-09T13:11:56.958Z,10.13
2023-04-09T13:14:30.211Z,9.50
2023-04-09T13:17:09.278Z,10.03
2023-04-09T13:20:06.900Z,10.50
2023-04-09T13:22:39.647Z,8.73
2023-04-09T13:25:07.899Z,12.47
2023-04-09T13:27:35.798Z,9.90
2023-04-09T13:30:03.855Z,9.83
2023-04-09T13:32:46.279Z,9.50
2023-04-09T13:35:15.775Z,9.80
2023-04-09T13:38:14.547Z,9.37
2023-04-09T13:40:42.379Z,10.07
2023-04-09T13:43:46.727Z,9.63
2023-04-09T13:46:22.398Z,12.37
2023-04-09T13:52:00.858Z,10.43
2023-04-09T13:54:28.777Z,11.27
2023-04-09T13:56:58.136Z,10.83
2023-04-09T13:59:38.908Z,10.47
2023-04-09T14:02:10.308Z,10.00
2023-04-09T14:04:38.454Z,8.93
2023-04-09T14:07:15.253Z,9.83
2023-04-09T14:09:44.122Z,9.60
2023-04-09T14:12:34.268Z,9.50
2023-04-09T14:15:06.408Z,9.27
2023-04-09T14:17:34.880Z,10.57
2023-04-09T14:20:03.875Z,11.10
2023-04-09T14:22:33.224Z,9.00
2023-04-09T14:25:02.387Z,9.53
2023-04-09T14:27:30.804Z,9.43
2023-04-09T14:29:58.689Z,9.83
2023-04-09T14:32:26.682Z,10.17
2023-04-09T14:34:56.763Z,10.53
2023-04-09T14:37:25.525Z,9.77
2023-04-09T14:39:54.797Z,11.87
2023-04-09T14:45:44.173Z,9.00
2023-04-09T14:48:19.567Z,11.17
2023-04-09T14:51:40.424Z,8.60
2023-04-09T14:54:59.459Z,9.17
2023-04-09T14:57:28.641Z,9.03
2023-04-09T15:00:03.502Z,9.03
2023-04-09T15:02:38.653Z,11.77
2023-04-09T15:05:07.406Z,9.53
2023-04-09T15:07:37.821Z,9.57
2023-04-09T15:10:07.504Z,12.87
2023-04-09T15:12:40.226Z,10.47
2023-04-09T15:15:13.974Z,14.03
2023-04-09T15:17:41.981Z,11.03
2023-04-09T15:20:10.461Z,11.10
2023-04-09T15:26:22.246Z,9.53
2023-04-09T15:28:53.495Z,10.37
2023-04-09T15:31:21.699Z,9.47
2023-04-09T15:33:50.306Z,8.60
2023-04-09T15:39:04.644Z,8.57
2023-04-09T15:41:36.516Z,8.37
2023-04-09T15:44:05.749Z,9.13
2023-04-09T15:46:34.928Z,7.73
2023-04-09T15:49:04.123Z,9.57
2023-04-09T15:52:12.222Z,9.23
2023-04-09T15:54:45.327Z,8.63
2023-04-09T15:57:14.313Z,8.87
2023-04-09T15:59:45.728Z,8.13
2023-04-09T16:02:13.594Z,7.57
2023-04-09T16:04:48.430Z,8.53
2023-04-09T16:07:17.586Z,6.60
2023-04-09T16:09:46.081Z,8.97
2023-04-09T16:12:24.730Z,7.53
2023-04-09T16:14:55.024Z,8.70
2023-04-09T16:17:40.280Z,11.13
2023-04-09T16:20:14.337Z,8.90
2023-04-09T16:22:42.271Z,8.90
2023-04-09T16:25:11.157Z,8.07
2023-04-09T16:27:41.465Z,9.63
2023-04-09T16:30:14.351Z,10.53
2023-04-09T16:32:47.714Z,9.67
2023-04-09T16:35:23.180Z,15.47
2023-04-09T16:38:03.237Z,10.17
2023-04-09T16:40:31.069Z,10.77
2023-04-09T16:42:58.976Z,10.73
2023-04-09T16:45:35.987Z,9.17
2023-04-09T16:48:12.021Z,10.33
2023-04-09T16:50:42.496Z,10.57
2023-04-09T16:53:10.482Z,9.93
2023-04-09T16:58:37.207Z,10.63
2023-04-09T17:01:09.473Z,10.80
2023-04-09T17:03:37.676Z,10.03
2023-04-09T17:06:12.767Z,10.47
2023-04-09T17:08:41.329Z,9.90
2023-04-09T17:11:31.464Z,9.60
2023-04-09T17:14:01.040Z,11.23
2023-04-09T17:16:33.176Z,10.00
2023-04-09T17:19:05.263Z,9.97
2023-04-09T17:21:34.299Z,9.50
2023-04-09T17:24:04.358Z,8.80
2023-04-09T17:26:35.399Z,8.93
2023-04-09T17:29:05.557Z,8.10
2023-04-09T17:31:39.355Z,9.13
2023-04-09T17:34:09.609Z,8.33
2023-04-09T17:36:37.648Z,8.70
2023-04-09T17:39:14.007Z,8.70
2023-04-09T17:41:42.498Z,8.90
2023-04-09T17:44:10.358Z,9.10
2023-04-09T17:46:40.922Z,8.77
2023-04-09T17:49:11.621Z,8.63
2023-04-09T17:51:42.953Z,8.20
2023-04-09T17:54:14.775Z,9.37
2023-04-09T17:56:44.401Z,8.87
2023-04-09T17:59:12.346Z,8.77
2023-04-09T18:01:44.122Z,8.60
2023-04-09T18:04:12.109Z,9.40
2023-04-09T18:06:40.934Z,8.67
2023-04-09T18:09:11.188Z,8.40
2023-04-09T18:11:39.338Z,8.83
2023-04-09T18:14:08.061Z,10.03
2023-04-09T18:16:47.204Z,9.40
2023-04-09T18:19:18.611Z,9.43
2023-04-09T18:21:48.980Z,8.67
2023-04-09T18:24:23.567Z,8.70
2023-04-09T18:26:51.763Z,9.37
2023-04-09T18:29:19.585Z,9.20
2023-04-09T18:34:29.010Z,7.93
2023-04-09T18:36:59.656Z,8.63
2023-04-09T18:39:28.087Z,9.03
2023-04-09T18:42:00.036Z,9.57
2023-04-09T18:44:28.139Z,8.57
2023-04-09T18:46:56.220Z,9.97
2023-04-09T18:49:26.243Z,8.80
2023-04-09T18:52:03.961Z,8.83
2023-04-09T18:54:34.916Z,10.00
2023-04-09T18:57:06.153Z,9.00
2023-04-09T18:59:42.102Z,9.00
2023-04-09T19:02:33.851Z,8.27
2023-04-09T19:05:03.351Z,8.87
2023-04-09T19:07:33.592Z,8.77
2023-04-09T19:10:01.448Z,9.33
2023-04-09T19:12:29.622Z,10.03
2023-04-09T19:15:00.182Z,9.07
2023-04-09T19:17:33.012Z,8.63
2023-04-09T19:20:01.032Z,7.30
2023-04-09T19:22:29.823Z,8.77
2023-04-09T19:25:00.406Z,8.00
2023-04-09T19:27:40.712Z,10.20
2023-04-09T19:30:20.475Z,10.10
2023-04-09T19:32:54.447Z,8.00
2023-04-09T19:35:23.659Z,8.80
2023-04-09T19:37:53.920Z,10.13
2023-04-09T19:40:23.231Z,9.67
2023-04-09T19:42:59.423Z,8.50
2023-04-09T19:45:30.431Z,8.53
2023-04-09T19:48:00.444Z,9.33
2023-04-09T19:50:31.391Z,8.73
2023-04-09T19:53:02.161Z,8.83
2023-04-09T19:55:31.523Z,8.83
2023-04-09T19:57:59.512Z,10.30
2023-04-09T20:00:28.139Z,9.17
2023-04-09T20:02:57.067Z,9.30
2023-04-09T20:05:25.368Z,8.57
2023-04-09T20:07:53.624Z,8.97
2023-04-09T20:10:21.631Z,9.23
2023-04-09T20:12:53.525Z,9.43
2023-04-09T20:15:21.564Z,7.80
2023-04-09T20:17:50.577Z,9.40
2023-04-09T20:20:19.994Z,9.37
2023-04-09T20:22:56.270Z,10.60
2023-04-09T20:25:24.925Z,9.43
2023-04-09T20:27:55.856Z,9.90
2023-04-09T20:30:23.778Z,10.97
2023-04-09T20:32:51.859Z,9.40
2023-04-09T20:35:19.891Z,9.23
2023-04-09T20:37:49.113Z,9.87
2023-04-09T20:40:17.615Z,10.13
2023-04-09T20:42:45.533Z,9.00
2023-04-09T20:45:14.857Z,8.57
2023-04-09T20:47:42.851Z,10.13
2023-04-09T20:50:11.617Z,8.80
2023-04-09T20:52:39.550Z,11.40
2023-04-09T20:55:08.093Z,10.67
2023-04-09T20:57:36.080Z,11.13
2023-04-09T21:00:04.174Z,10.03
2023-04-09T21:02:33.607Z,8.53
2023-04-09T21:05:08.518Z,9.87
2023-04-09T21:07:43.698Z,9.30
2023-04-09T21:10:12.231Z,8.57
2023-04-09T21:12:41.339Z,9.20
2023-04-09T21:15:10.327Z,9.67
2023-04-09T21:17:39.621Z,11.23
2023-04-09T21:20:08.692Z,9.17
2023-04-09T21:22:36.684Z,11.00
2023-04-09T21:25:04.827Z,10.77
2023-04-09T21:27:32.681Z,12.23
2023-04-09T21:30:00.571Z,11.13
2023-04-09T21:32:28.668Z,11.17
2023-04-09T21:34:58.180Z,12.60
2023-04-09T21:37:33.723Z,11.80
2023-04-09T21:40:01.630Z,12.10
2023-04-09T21:42:33.957Z,10.87
2023-04-09T21:45:02.288Z,11.50
2023-04-09T21:47:30.601Z,13.10
2023-04-09T21:50:00.005Z,10.97
2023-04-09T21:52:28.124Z,11.57
2023-04-09T21:54:56.066Z,12.63
2023-04-09T21:57:23.949Z,12.13
2023-04-09T21:59:51.865Z,12.10
2023-04-09T22:02:19.931Z,12.03
2023-04-09T22:04:48.128Z,13.20
2023-04-09T22:07:17.489Z,11.77
2023-04-09T22:09:45.452Z,12.07
2023-04-09T22:12:13.397Z,13.43
2023-04-09T22:14:41.999Z,12.83
2023-04-09T22:17:10.321Z,13.93
2023-04-09T22:19:40.510Z,13.93
2023-04-09T22:22:08.977Z,15.17
2023-04-09T22:24:39.297Z,14.87
2023-04-09T22:27:07.217Z,15.70
2023-04-09T22:29:37.835Z,17.03
2023-04-09T22:32:06.029Z,18.70
2023-04-09T22:34:33.989Z,15.57
2023-04-09T22:37:02.165Z,14.73
2023-04-09T22:39:30.227Z,14.90
2023-04-09T22:41:59.576Z,15.53
2023-04-09T22:44:27.486Z,15.53
2023-04-09T22:46:55.521Z,15.63
2023-04-09T22:49:24.188Z,14.43
2023-04-09T22:51:52.073Z,16.17
2023-04-09T22:54:19.941Z,14.10
2023-04-09T22:56:48.538Z,15.47
2023-04-09T22:59:19.957Z,12.67
2023-04-09T23:01:49.410Z,14.90
2023-04-09T23:04:17.957Z,15.33
2023-04-09T23:06:45.910Z,14.23
2023-04-09T23:09:13.810Z,14.50
2023-04-09T23:11:41.657Z,15.37
2023-04-09T23:14:09.578Z,15.53
2023-04-09T23:16:38.934Z,14.57
2023-04-09T23:19:06.889Z,15.67
2023-04-09T23:21:34.814Z,15.63
2023-04-09T23:24:02.795Z,13.87
2023-04-09T23:26:30.800Z,16.83
2023-04-09T23:28:58.734Z,16.07
2023-04-09T23:31:27.191Z,15.67
2023-04-09T23:33:56.608Z,16.90
2023-04-09T23:36:24.899Z,15.20
2023-04-09T23:38:52.803Z,16.63
2023-04-09T23:41:20.942Z,17.13
2023-04-09T23:43:49.058Z,17.47
2023-04-09T23:46:16.922Z,16.37
2023-04-09T23:48:44.833Z,16.33
2023-04-09T23:51:19.302Z,17.73
2023-04-09T23:53:47.328Z,15.10
2023-04-09T23:56:16.085Z,15.30
2023-04-09T23:58:44.021Z,18.03
